createdAt,value
2019-04-26T00:00:41.021Z,89.18
2019-04-26T00:01:41.033Z,89.27
2019-04-26T00:02:41.018Z,89.65
2019-04-26T00:03:41.018Z,89.75
2019-04-26T00:04:41.017Z,89.75
2019-04-26T00:05:41.013Z,90.52
2019-04-26T00:06:41.013Z,90.23
2019-04-26T00:07:41.010Z,90.52
2019-04-26T00:08:41.010Z,90.19
2019-04-26T00:09:41.004Z,90.52
2019-04-26T00:10:41.004Z,90.67
2019-04-26T00:11:41.006Z,91.28
2019-04-26T00:12:41.009Z,91.28
2019-04-26T00:13:41.014Z,91.48
2019-04-26T00:14:40.999Z,92.01
2019-04-26T00:15:40.997Z,91.43
2019-04-26T00:16:40.993Z,92.10
2019-04-26T00:17:40.992Z,92.58
2019-04-26T00:18:40.987Z,92.39
2019-04-26T00:19:40.989Z,92.87
2019-04-26T00:20:40.989Z,93.06
2019-04-26T00:21:40.982Z,92.97
2019-04-26T00:22:40.982Z,93.06
2019-04-26T00:23:40.994Z,93.63
2019-04-26T00:24:40.992Z,93.16
2019-04-26T00:25:40.973Z,93.93
2019-04-26T00:26:40.971Z,93.63
2019-04-26T00:27:40.970Z,94.12
2019-04-26T00:28:40.968Z,94.12
2019-04-26T00:29:40.966Z,94.21
2019-04-26T00:30:40.964Z,93.73
2019-04-26T00:31:41.251Z,94.02
2019-04-26T00:32:40.958Z,94.31
2019-04-26T00:33:40.959Z,94.40
2019-04-26T00:34:40.957Z,94.69
2019-04-26T00:35:47.275Z,94.93
2019-04-26T00:36:40.959Z,95.12
2019-04-26T00:37:40.954Z,94.84
2019-04-26T00:38:40.946Z,94.93
2019-04-26T00:39:40.950Z,94.74
2019-04-26T00:40:40.942Z,95.22
2019-04-26T00:41:40.942Z,95.89
2019-04-26T00:42:40.939Z,95.79
2019-04-26T00:43:40.946Z,95.98
2019-04-26T00:44:40.945Z,95.89
2019-04-26T00:45:40.932Z,95.98
2019-04-26T00:46:40.933Z,96.27
2019-04-26T00:47:40.926Z,96.18
2019-04-26T00:48:40.925Z,96.47
2019-04-26T00:49:43.863Z,96.37
2019-04-26T00:50:40.923Z,96.56
2019-04-26T00:51:40.921Z,96.37
2019-04-26T00:52:40.982Z,95.89
2019-04-26T00:53:40.920Z,96.56
2019-04-26T00:54:40.915Z,96.08
2019-04-26T00:55:40.911Z,96.37
2019-04-26T00:56:40.907Z,96.94
2019-04-26T00:57:40.903Z,97.14
2019-04-26T00:58:40.918Z,97.23
2019-04-26T00:59:40.899Z,96.94
2019-04-26T01:00:40.898Z,97.04
2019-04-26T01:01:40.896Z,97.71
2019-04-26T01:02:41.695Z,97.66
2019-04-26T01:03:40.887Z,97.52
2019-04-26T01:04:40.885Z,97.56
2019-04-26T01:05:40.892Z,97.18
2019-04-26T01:06:40.882Z,97.23
2019-04-26T01:07:40.879Z,97.61
2019-04-26T01:08:40.880Z,97.75
2019-04-26T01:09:40.873Z,97.85
2019-04-26T01:10:40.870Z,97.47
2019-04-26T01:11:40.869Z,97.47
2019-04-26T01:12:40.866Z,97.75
2019-04-26T01:13:40.864Z,97.95
2019-04-26T01:14:40.861Z,97.95
2019-04-26T01:15:40.858Z,97.85
2019-04-26T01:16:40.853Z,97.75
2019-04-26T01:17:40.856Z,97.75
2019-04-26T01:18:40.850Z,97.75
2019-04-26T01:19:40.857Z,97.95
2019-04-26T01:20:40.851Z,97.75
2019-04-26T01:21:40.840Z,97.75
2019-04-26T01:22:40.844Z,97.66
2019-04-26T01:23:40.836Z,97.75
2019-04-26T01:24:40.834Z,97.95
2019-04-26T01:25:40.834Z,98.14
2019-04-26T01:26:40.830Z,97.66
2019-04-26T01:27:40.855Z,97.85
2019-04-26T01:28:40.826Z,98.14
2019-04-26T01:29:40.819Z,97.95
2019-04-26T01:30:40.832Z,98.24
2019-04-26T01:31:40.816Z,97.75
2019-04-26T01:32:40.811Z,97.75
2019-04-26T01:33:40.809Z,97.85
2019-04-26T01:34:40.805Z,97.95
2019-04-26T01:35:40.803Z,98.05
2019-04-26T01:36:40.804Z,98.14
2019-04-26T01:37:40.799Z,97.85
2019-04-26T01:38:40.802Z,98.05
2019-04-26T01:39:40.793Z,97.95
2019-04-26T01:40:40.790Z,97.80
2019-04-26T01:41:40.798Z,98.05
2019-04-26T01:42:40.783Z,98.00
2019-04-26T01:43:40.780Z,98.09
2019-04-26T01:44:40.799Z,98.09
2019-04-26T01:45:40.774Z,98.09
2019-04-26T01:46:40.773Z,98.09
2019-04-26T01:47:40.776Z,98.09
2019-04-26T01:48:40.767Z,98.00
2019-04-26T01:49:40.763Z,97.90
2019-04-26T01:50:40.761Z,97.90
2019-04-26T01:51:40.763Z,98.28
2019-04-26T01:52:40.755Z,98.19
2019-04-26T01:53:40.754Z,98.43
2019-04-26T01:54:40.757Z,98.09
2019-04-26T01:55:40.773Z,99.00
2019-04-26T01:56:40.745Z,98.86
2019-04-26T01:57:40.737Z,98.91
2019-04-26T01:58:40.751Z,98.91
2019-04-26T01:59:40.735Z,98.47
2019-04-26T02:00:40.730Z,98.47
2019-04-26T02:01:40.732Z,98.47
2019-04-26T02:02:40.725Z,98.57
2019-04-26T02:03:40.722Z,98.71
2019-04-26T02:04:40.719Z,98.57
2019-04-26T02:05:40.714Z,98.52
2019-04-26T02:06:40.711Z,98.33
2019-04-26T02:07:40.711Z,98.52
2019-04-26T02:08:40.722Z,98.91
2019-04-26T02:09:40.706Z,98.52
2019-04-26T02:10:40.702Z,98.52
2019-04-26T02:11:40.703Z,98.33
2019-04-26T02:12:40.700Z,98.62
2019-04-26T02:13:40.693Z,98.24
2019-04-26T02:14:40.691Z,98.09
2019-04-26T02:15:40.685Z,97.95
2019-04-26T02:16:40.684Z,98.05
2019-04-26T02:17:40.681Z,97.85
2019-04-26T02:18:40.681Z,97.56
2019-04-26T02:19:40.677Z,97.28
2019-04-26T02:20:40.674Z,96.89
2019-04-26T02:21:40.669Z,96.42
2019-04-26T02:22:40.678Z,96.22
2019-04-26T02:23:40.681Z,96.89
2019-04-26T02:24:40.661Z,96.22
2019-04-26T02:25:40.658Z,95.84
2019-04-26T02:26:40.653Z,95.84
2019-04-26T02:27:40.653Z,96.13
2019-04-26T02:28:40.652Z,96.13
2019-04-26T02:29:40.651Z,96.13
2019-04-26T02:30:40.645Z,95.65
2019-04-26T02:31:40.642Z,95.36
2019-04-26T02:32:40.652Z,95.75
2019-04-26T02:33:40.640Z,94.98
2019-04-26T02:34:41.007Z,94.69
2019-04-26T02:35:40.629Z,94.40
2019-04-26T02:36:56.108Z,94.79
2019-04-26T02:37:40.629Z,94.60
2019-04-26T02:38:40.625Z,94.21
2019-04-26T02:39:40.620Z,94.21
2019-04-26T02:40:40.618Z,93.54
2019-04-26T02:41:40.612Z,93.16
2019-04-26T02:42:40.623Z,93.45
2019-04-26T02:43:40.632Z,92.58
2019-04-26T02:44:40.611Z,92.21
2019-04-26T02:45:40.603Z,91.53
2019-04-26T02:46:40.600Z,91.44
2019-04-26T02:47:40.598Z,91.72
2019-04-26T02:48:40.598Z,92.97
2019-04-26T02:49:40.596Z,92.68
2019-04-26T02:50:40.598Z,93.16
2019-04-26T02:51:40.587Z,93.35
2019-04-26T02:52:40.584Z,94.02
2019-04-26T02:53:40.601Z,94.50
2019-04-26T02:54:40.581Z,94.79
2019-04-26T02:55:42.701Z,96.22
2019-04-26T02:56:40.586Z,96.99
2019-04-26T02:57:40.571Z,97.47
2019-04-26T02:58:40.568Z,97.38
2019-04-26T02:59:41.024Z,97.56
2019-04-26T03:00:40.561Z,97.18
2019-04-26T03:01:40.561Z,96.70
2019-04-26T03:02:40.637Z,95.84
2019-04-26T03:03:40.554Z,96.22
2019-04-26T03:04:40.549Z,96.22
2019-04-26T03:05:41.477Z,95.75
2019-04-26T03:06:41.209Z,96.37
2019-04-26T03:07:40.539Z,96.61
2019-04-26T03:08:40.547Z,96.89
2019-04-26T03:09:40.555Z,97.42
2019-04-26T03:10:40.596Z,97.52
2019-04-26T03:11:40.531Z,97.71
2019-04-26T03:12:40.526Z,97.90
2019-04-26T03:13:40.525Z,97.71
2019-04-26T03:14:41.963Z,97.52
2019-04-26T03:15:40.518Z,98.28
2019-04-26T03:16:41.502Z,98.19
2019-04-26T03:17:40.938Z,98.28
2019-04-26T03:18:41.603Z,98.47
2019-04-26T03:19:40.865Z,98.09
2019-04-26T03:20:42.244Z,98.28
2019-04-26T03:21:41.471Z,98.28
2019-04-26T03:22:41.161Z,98.66
2019-04-26T03:23:53.260Z,98.38
2019-04-26T03:24:42.164Z,98.19
2019-04-26T03:25:42.088Z,98.38
2019-04-26T03:26:41.553Z,98.57
2019-04-26T03:27:43.029Z,98.81
2019-04-26T03:28:43.456Z,98.52
2019-04-26T03:29:41.958Z,98.61
2019-04-26T03:30:48.635Z,98.81
2019-04-26T03:31:51.910Z,98.61
2019-04-26T03:32:50.319Z,98.90
2019-04-26T03:33:49.967Z,98.81
2019-04-26T03:34:50.750Z,98.90
2019-04-26T03:35:54.550Z,98.81
2019-04-26T03:36:42.064Z,98.61
2019-04-26T03:37:42.007Z,98.81
2019-04-26T03:38:41.916Z,98.43
2019-04-26T03:39:42.416Z,99.48
2019-04-26T03:40:42.441Z,99.00
2019-04-26T03:41:41.086Z,99.38
2019-04-26T03:42:42.201Z,99.48
2019-04-26T03:43:41.356Z,99.19
2019-04-26T03:44:41.144Z,98.81
2019-04-26T03:45:42.471Z,99.29
2019-04-26T03:46:41.840Z,99.10
2019-04-26T03:47:42.666Z,99.00
2019-04-26T03:48:41.708Z,99.29
2019-04-26T03:49:42.053Z,98.61
2019-04-26T03:50:41.023Z,98.90
2019-04-26T03:51:41.143Z,98.61
2019-04-26T03:52:42.112Z,98.43
2019-04-26T03:53:41.871Z,98.90
2019-04-26T03:54:41.064Z,98.81
2019-04-26T03:55:41.949Z,98.90
2019-04-26T03:56:41.819Z,98.61
2019-04-26T03:57:42.166Z,98.71
2019-04-26T03:58:41.793Z,98.81
2019-04-26T03:59:42.170Z,98.81
2019-04-26T04:00:41.475Z,98.61
2019-04-26T04:01:41.267Z,98.43
2019-04-26T04:02:41.550Z,98.43
2019-04-26T04:03:43.156Z,98.81
2019-04-26T04:04:41.603Z,98.81
2019-04-26T04:05:41.979Z,98.24
2019-04-26T04:06:56.359Z,98.61
2019-04-26T04:07:47.283Z,98.52
2019-04-26T04:08:41.991Z,98.90
2019-04-26T04:09:41.449Z,99.19
2019-04-26T04:10:41.944Z,99.10
2019-04-26T04:11:42.305Z,98.81
2019-04-26T04:12:42.157Z,98.61
2019-04-26T04:13:43.264Z,98.61
2019-04-26T04:14:41.938Z,98.61
2019-04-26T04:15:41.934Z,98.52
2019-04-26T04:16:42.443Z,98.52
2019-04-26T04:17:43.296Z,98.71
2019-04-26T04:18:41.770Z,98.81
2019-04-26T04:19:41.883Z,98.90
2019-04-26T04:20:41.065Z,99.38
2019-04-26T04:21:41.231Z,99.00
2019-04-26T04:22:41.773Z,99.00
2019-04-26T04:23:41.866Z,99.38
2019-04-26T04:24:41.637Z,99.10
2019-04-26T04:25:42.355Z,98.61
2019-04-26T04:26:41.500Z,98.81
2019-04-26T04:27:41.952Z,99.19
2019-04-26T04:28:42.052Z,99.19
2019-04-26T04:29:47.140Z,99.10
2019-04-26T04:30:41.919Z,99.19
2019-04-26T04:31:41.656Z,99.19
2019-04-26T04:32:41.904Z,98.71
2019-04-26T04:33:42.654Z,99.48
2019-04-26T04:34:42.132Z,99.00
2019-04-26T04:35:42.251Z,98.90
2019-04-26T04:36:41.725Z,99.19
2019-04-26T04:38:02.188Z,99.00
2019-04-26T04:38:42.049Z,99.76
2019-04-26T04:39:42.059Z,99.86
2019-04-26T04:40:40.866Z,99.48
2019-04-26T04:41:41.029Z,99.57
2019-04-26T04:42:41.500Z,99.99
2019-04-26T04:43:41.854Z,99.91
2019-04-26T04:44:42.337Z,99.52
2019-04-26T04:45:41.732Z,99.52
2019-04-26T04:46:41.743Z,99.72
2019-04-26T04:47:41.228Z,98.91
2019-04-26T04:48:41.169Z,98.05
2019-04-26T04:49:41.212Z,96.27
2019-04-26T04:50:40.960Z,95.89
2019-04-26T04:51:40.854Z,95.79
2019-04-26T04:52:42.501Z,95.98
2019-04-26T04:53:41.186Z,96.32
2019-04-26T04:54:41.568Z,96.80
2019-04-26T04:55:42.818Z,96.42
2019-04-26T04:56:41.512Z,96.51
2019-04-26T04:57:40.170Z,97.09
2019-04-26T04:58:40.165Z,97.75
2019-04-26T04:59:40.163Z,97.09
2019-04-26T05:00:40.160Z,97.38
2019-04-26T05:01:40.158Z,97.47
2019-04-26T05:02:40.166Z,97.66
2019-04-26T05:03:40.166Z,96.89
2019-04-26T05:04:40.156Z,96.13
2019-04-26T05:05:40.158Z,96.42
2019-04-26T05:06:40.143Z,96.22
2019-04-26T05:07:40.140Z,96.22
2019-04-26T05:08:40.135Z,96.51
2019-04-26T05:09:40.183Z,95.94
2019-04-26T05:10:40.130Z,95.94
2019-04-26T05:11:40.129Z,95.84
2019-04-26T05:12:40.126Z,95.65
2019-04-26T05:13:40.121Z,95.46
2019-04-26T05:14:40.119Z,95.65
2019-04-26T05:15:40.114Z,95.56
2019-04-26T05:16:40.123Z,94.79
2019-04-26T05:17:40.110Z,94.84
2019-04-26T05:18:40.105Z,94.84
2019-04-26T05:19:40.122Z,94.84
2019-04-26T05:20:40.116Z,94.45
2019-04-26T05:21:40.099Z,94.17
2019-04-26T05:22:40.098Z,93.21
2019-04-26T05:23:40.095Z,94.26
2019-04-26T05:24:40.102Z,93.49
2019-04-26T05:25:40.494Z,92.73
2019-04-26T05:26:40.084Z,90.86
2019-04-26T05:27:40.085Z,89.08
2019-04-26T05:28:40.083Z,87.35
2019-04-26T05:29:40.088Z,83.18
2019-04-26T05:30:40.076Z,79.91
2019-04-26T05:31:40.074Z,77.94
2019-04-26T05:32:40.078Z,76.12
2019-04-26T05:33:40.068Z,75.06
2019-04-26T05:34:40.069Z,74.68
2019-04-26T05:35:40.070Z,73.85
2019-04-26T05:36:40.065Z,72.12
2019-04-26T05:37:40.068Z,71.45
2019-04-26T05:38:40.061Z,71.55
2019-04-26T05:39:40.076Z,72.28
2019-04-26T05:40:40.059Z,72.75
2019-04-26T05:41:40.055Z,73.14
2019-04-26T05:42:40.056Z,73.24
2019-04-26T05:43:40.052Z,74.01
2019-04-26T05:44:40.073Z,74.68
2019-04-26T05:45:40.648Z,75.15
2019-04-26T05:46:40.049Z,75.40
2019-04-26T05:47:40.046Z,77.04
2019-04-26T05:48:40.052Z,78.00
2019-04-26T05:49:40.056Z,78.47
2019-04-26T05:50:40.041Z,79.91
2019-04-26T05:51:40.040Z,80.49
2019-04-26T05:52:40.041Z,81.12
2019-04-26T05:53:40.047Z,81.84
2019-04-26T05:54:40.038Z,81.79
2019-04-26T05:55:40.035Z,80.97
2019-04-26T05:56:40.035Z,81.54
2019-04-26T05:57:40.034Z,81.35
2019-04-26T05:58:40.032Z,80.30
2019-04-26T05:59:40.029Z,80.20
2019-04-26T06:00:40.028Z,80.20
2019-04-26T06:01:40.034Z,79.72
2019-04-26T06:02:40.025Z,79.72
2019-04-26T06:03:40.024Z,79.82
2019-04-26T06:04:40.022Z,79.72
2019-04-26T06:05:40.024Z,79.82
2019-04-26T06:06:40.020Z,80.01
2019-04-26T06:07:40.022Z,80.58
2019-04-26T06:08:40.026Z,80.30
2019-04-26T06:09:40.015Z,80.49
2019-04-26T06:10:40.026Z,80.20
2019-04-26T06:11:40.015Z,80.49
2019-04-26T06:12:40.011Z,79.53
2019-04-26T06:13:40.009Z,79.72
2019-04-26T06:14:40.014Z,80.01
2019-04-26T06:15:40.074Z,80.30
2019-04-26T06:16:40.006Z,79.88
2019-04-26T06:17:40.003Z,80.26
2019-04-26T06:18:40.034Z,80.78
2019-04-26T06:19:40.001Z,80.26
2019-04-26T06:20:40.001Z,80.58
2019-04-26T06:21:40.008Z,81.35
2019-04-26T06:22:40.002Z,81.31
2019-04-26T06:23:40.004Z,81.02
2019-04-26T06:24:39.997Z,80.78
2019-04-26T06:25:39.992Z,80.30
2019-04-26T06:26:41.556Z,80.68
2019-04-26T06:27:39.998Z,80.97
2019-04-26T06:28:39.992Z,80.49
2019-04-26T06:29:39.986Z,80.78
2019-04-26T06:30:45.574Z,80.11
2019-04-26T06:31:39.994Z,81.22
2019-04-26T06:32:40.020Z,81.89
2019-04-26T06:33:39.981Z,82.46
2019-04-26T06:34:39.982Z,82.85
2019-04-26T06:35:39.982Z,83.42
2019-04-26T06:36:39.984Z,82.94
2019-04-26T06:37:39.975Z,84.19
2019-04-26T06:38:44.032Z,84.09
2019-04-26T06:39:39.973Z,84.19
2019-04-26T06:40:42.015Z,84.77
2019-04-26T06:41:39.970Z,85.44
2019-04-26T06:42:39.966Z,85.25
2019-04-26T06:43:39.968Z,85.25
2019-04-26T06:44:39.976Z,85.92
2019-04-26T06:45:40.025Z,85.63
2019-04-26T06:46:39.961Z,85.63
2019-04-26T06:47:39.962Z,85.92
2019-04-26T06:48:39.983Z,85.72
2019-04-26T06:49:39.955Z,85.34
2019-04-26T06:50:39.960Z,85.34
2019-04-26T06:51:39.976Z,85.25
2019-04-26T06:52:39.951Z,85.63
2019-04-26T06:53:39.950Z,86.49
2019-04-26T06:54:39.946Z,86.97
2019-04-26T06:55:39.972Z,87.07
2019-04-26T06:56:39.943Z,87.07
2019-04-26T06:57:39.940Z,87.35
2019-04-26T06:58:39.945Z,87.07
2019-04-26T06:59:39.937Z,86.97
2019-04-26T07:00:39.934Z,88.02
2019-04-26T07:01:39.935Z,87.84
2019-04-26T07:02:39.936Z,89.18
2019-04-26T07:03:39.930Z,88.70
2019-04-26T07:04:39.927Z,88.60
2019-04-26T07:05:39.930Z,88.31
2019-04-26T07:06:39.927Z,87.93
2019-04-26T07:07:39.931Z,87.55
2019-04-26T07:08:39.924Z,88.02
2019-04-26T07:09:39.918Z,88.70
2019-04-26T07:10:39.918Z,88.70
2019-04-26T07:11:40.975Z,88.41
2019-04-26T07:12:39.913Z,88.31
2019-04-26T07:13:39.920Z,87.55
2019-04-26T07:14:39.907Z,87.35
2019-04-26T07:15:39.906Z,87.07
2019-04-26T07:16:39.911Z,87.35
2019-04-26T07:17:39.916Z,86.88
2019-04-26T07:18:39.911Z,87.07
2019-04-26T07:19:39.902Z,87.07
2019-04-26T07:20:39.896Z,87.74
2019-04-26T07:21:39.898Z,88.51
2019-04-26T07:22:39.896Z,88.41
2019-04-26T07:23:39.895Z,88.70
2019-04-26T07:24:39.895Z,88.89
2019-04-26T07:25:39.888Z,89.18
2019-04-26T07:26:39.903Z,88.51
2019-04-26T07:27:39.912Z,88.60
2019-04-26T07:28:39.882Z,88.31
2019-04-26T07:29:39.919Z,88.41
2019-04-26T07:30:39.881Z,88.79
2019-04-26T07:31:39.878Z,88.70
2019-04-26T07:32:39.880Z,89.18
2019-04-26T07:33:39.956Z,89.75
2019-04-26T07:34:39.874Z,89.47
2019-04-26T07:35:39.875Z,89.65
2019-04-26T07:36:39.870Z,89.85
2019-04-26T07:37:39.867Z,89.94
2019-04-26T07:38:39.876Z,89.75
2019-04-26T07:39:39.864Z,89.18
2019-04-26T07:40:39.872Z,88.41
2019-04-26T07:41:39.862Z,88.41
2019-04-26T07:42:39.859Z,88.45
2019-04-26T07:43:39.902Z,87.88
2019-04-26T07:44:39.854Z,86.92
2019-04-26T07:45:39.851Z,87.01
2019-04-26T07:46:39.853Z,87.01
2019-04-26T07:47:39.849Z,86.54
2019-04-26T07:48:39.848Z,86.72
2019-04-26T07:49:39.848Z,86.05
2019-04-26T07:50:39.847Z,85.38
2019-04-26T07:51:39.859Z,85.48
2019-04-26T07:52:39.849Z,85.10
2019-04-26T07:53:39.844Z,85.04
2019-04-26T07:54:39.875Z,84.95
2019-04-26T07:55:39.901Z,84.37
2019-04-26T07:56:39.889Z,83.51
2019-04-26T07:57:40.529Z,83.60
2019-04-26T07:58:42.530Z,83.03
2019-04-26T07:59:39.866Z,82.10
2019-04-26T08:00:45.015Z,81.05
2019-04-26T08:01:39.963Z,79.80
2019-04-26T08:02:39.988Z,79.22
2019-04-26T08:03:39.946Z,78.94
2019-04-26T08:04:39.885Z,78.94
2019-04-26T08:05:39.895Z,79.13
2019-04-26T08:06:39.824Z,77.98
2019-04-26T08:07:39.897Z,77.40
2019-04-26T08:08:40.580Z,77.06
2019-04-26T08:09:39.825Z,75.62
2019-04-26T08:10:39.848Z,75.20
2019-04-26T08:11:39.826Z,75.32
2019-04-26T08:12:39.843Z,75.32
2019-04-26T08:13:39.835Z,75.04
2019-04-26T08:14:39.821Z,73.98
2019-04-26T08:15:39.840Z,74.46
2019-04-26T08:16:39.896Z,74.46
2019-04-26T08:17:39.885Z,74.55
2019-04-26T08:18:39.996Z,73.50
2019-04-26T08:19:39.862Z,73.11
2019-04-26T08:20:39.853Z,72.73
2019-04-26T08:21:42.770Z,72.83
2019-04-26T08:22:39.936Z,71.87
2019-04-26T08:23:42.149Z,71.10
2019-04-26T08:24:39.820Z,71.10
2019-04-26T08:25:39.822Z,70.90
2019-04-26T08:26:39.828Z,70.72
2019-04-26T08:27:39.823Z,70.43
2019-04-26T08:28:39.815Z,70.33
2019-04-26T08:29:39.831Z,70.37
2019-04-26T08:30:40.529Z,69.69
2019-04-26T08:31:39.943Z,69.60
2019-04-26T08:32:40.516Z,68.73
2019-04-26T08:33:40.414Z,68.83
2019-04-26T08:34:39.927Z,67.58
2019-04-26T08:35:39.822Z,67.48
2019-04-26T08:36:45.945Z,67.38
2019-04-26T08:37:39.815Z,66.91
2019-04-26T08:38:40.039Z,67.00
2019-04-26T08:39:45.502Z,67.48
2019-04-26T08:40:39.818Z,67.77
2019-04-26T08:41:40.235Z,67.86
2019-04-26T08:42:39.814Z,67.48
2019-04-26T08:43:40.150Z,67.58
2019-04-26T08:44:39.813Z,67.86
2019-04-26T08:45:40.547Z,67.10
2019-04-26T08:46:39.814Z,66.55
2019-04-26T08:47:39.822Z,66.36
2019-04-26T08:48:39.821Z,66.46
2019-04-26T08:49:40.085Z,66.74
2019-04-26T08:50:42.205Z,66.84
2019-04-26T08:51:39.937Z,66.74
2019-04-26T08:52:39.817Z,66.46
2019-04-26T08:53:39.819Z,66.74
2019-04-26T08:54:39.830Z,66.46
2019-04-26T08:55:39.817Z,66.68
2019-04-26T08:56:39.816Z,65.08
2019-04-26T08:57:39.823Z,62.80
2019-04-26T08:58:39.824Z,61.58
2019-04-26T08:59:39.819Z,59.13
2019-04-26T09:00:39.819Z,56.00
2019-04-26T09:01:42.063Z,54.19
2019-04-26T09:02:39.827Z,52.48
2019-04-26T09:03:39.827Z,51.56
2019-04-26T09:04:41.600Z,49.65
2019-04-26T09:05:39.861Z,48.52
2019-04-26T09:06:39.832Z,47.47
2019-04-26T09:07:40.104Z,46.72
2019-04-26T09:08:43.500Z,45.48
2019-04-26T09:09:39.834Z,45.56
2019-04-26T09:10:43.337Z,45.83
2019-04-26T09:11:39.841Z,46.87
2019-04-26T09:12:39.847Z,47.33
2019-04-26T09:13:39.882Z,48.06
2019-04-26T09:14:40.847Z,49.80
2019-04-26T09:15:40.733Z,50.45
2019-04-26T09:16:49.884Z,51.17
2019-04-26T09:17:39.860Z,52.04
2019-04-26T09:18:43.610Z,53.27
2019-04-26T09:19:39.893Z,53.53
2019-04-26T09:20:42.938Z,54.40
2019-04-26T09:21:39.873Z,55.18
2019-04-26T09:22:39.903Z,55.92
2019-04-26T09:23:40.589Z,56.30
2019-04-26T09:24:39.888Z,56.98
2019-04-26T09:25:39.877Z,57.34
2019-04-26T09:26:42.446Z,57.62
2019-04-26T09:27:39.882Z,57.62
2019-04-26T09:28:39.882Z,57.43
2019-04-26T09:29:39.933Z,57.72
2019-04-26T09:30:42.273Z,58.01
2019-04-26T09:31:39.885Z,57.72
2019-04-26T09:32:39.889Z,58.01
2019-04-26T09:33:39.893Z,57.82
2019-04-26T09:34:41.293Z,58.30
2019-04-26T09:35:39.896Z,58.20
2019-04-26T09:36:39.894Z,58.69
2019-04-26T09:37:39.896Z,58.69
2019-04-26T09:38:39.906Z,58.59
2019-04-26T09:39:41.692Z,58.30
2019-04-26T09:40:39.904Z,58.49
2019-04-26T09:41:39.903Z,58.69
2019-04-26T09:42:41.022Z,57.62
2019-04-26T09:43:39.909Z,57.72
2019-04-26T09:44:41.320Z,57.53
2019-04-26T09:45:39.928Z,57.46
2019-04-26T09:46:39.911Z,57.53
2019-04-26T09:47:39.942Z,57.85
2019-04-26T09:48:39.927Z,57.65
2019-04-26T09:49:41.163Z,56.98
2019-04-26T09:50:39.918Z,56.98
2019-04-26T09:51:40.495Z,56.40
2019-04-26T09:52:39.925Z,56.49
2019-04-26T09:53:43.511Z,56.59
2019-04-26T09:54:39.926Z,56.88
2019-04-26T09:55:39.926Z,56.01
2019-04-26T09:56:39.928Z,56.30
2019-04-26T09:57:39.930Z,56.11
2019-04-26T09:58:39.932Z,56.01
2019-04-26T09:59:41.105Z,56.40
2019-04-26T10:00:39.937Z,56.49
2019-04-26T10:01:39.938Z,56.49
2019-04-26T10:02:39.941Z,56.01
2019-04-26T10:03:39.941Z,55.92
2019-04-26T10:04:39.944Z,56.21
2019-04-26T10:05:39.945Z,56.49
2019-04-26T10:06:39.949Z,56.27
2019-04-26T10:07:39.949Z,56.66
2019-04-26T10:08:43.341Z,56.95
2019-04-26T10:09:39.964Z,56.66
2019-04-26T10:10:39.952Z,56.85
2019-04-26T10:11:43.480Z,56.57
2019-04-26T10:12:39.957Z,56.27
2019-04-26T10:13:39.955Z,55.70
2019-04-26T10:14:39.961Z,55.89
2019-04-26T10:15:39.961Z,55.31
2019-04-26T10:16:42.178Z,55.22
2019-04-26T10:17:39.969Z,55.12
2019-04-26T10:18:39.967Z,54.83
2019-04-26T10:19:39.966Z,54.74
2019-04-26T10:20:39.992Z,54.28
2019-04-26T10:21:40.031Z,54.76
2019-04-26T10:22:39.974Z,54.47
2019-04-26T10:23:40.027Z,54.18
2019-04-26T10:24:39.977Z,54.35
2019-04-26T10:25:39.989Z,54.64
2019-04-26T10:26:39.981Z,54.64
2019-04-26T10:27:40.689Z,54.86
2019-04-26T10:28:39.990Z,54.76
2019-04-26T10:29:39.989Z,54.28
2019-04-26T10:30:42.282Z,53.99
2019-04-26T10:31:40.016Z,53.80
2019-04-26T10:32:39.991Z,53.41
2019-04-26T10:33:39.993Z,53.70
2019-04-26T10:34:42.668Z,53.41
2019-04-26T10:35:39.997Z,53.03
2019-04-26T10:36:40.011Z,53.89
2019-04-26T10:37:43.699Z,52.83
2019-04-26T10:38:40.002Z,53.44
2019-04-26T10:39:40.004Z,52.09
2019-04-26T10:40:40.008Z,52.47
2019-04-26T10:41:40.061Z,51.99
2019-04-26T10:42:40.015Z,52.09
2019-04-26T10:43:40.015Z,52.28
2019-04-26T10:44:41.095Z,52.19
2019-04-26T10:45:40.027Z,52.21
2019-04-26T10:46:40.017Z,51.53
2019-04-26T10:47:40.025Z,51.85
2019-04-26T10:48:41.416Z,51.59
2019-04-26T10:49:40.024Z,50.81
2019-04-26T10:50:40.044Z,51.07
2019-04-26T10:51:41.922Z,51.17
2019-04-26T10:52:40.035Z,51.07
2019-04-26T10:53:40.036Z,51.46
2019-04-26T10:54:40.988Z,51.65
2019-04-26T10:55:40.042Z,51.63
2019-04-26T10:56:40.052Z,51.92
2019-04-26T10:57:40.047Z,52.40
2019-04-26T10:58:40.049Z,52.69
2019-04-26T10:59:44.007Z,52.67
2019-04-26T11:00:40.061Z,53.15
2019-04-26T11:01:40.059Z,53.25
2019-04-26T11:02:40.074Z,52.67
2019-04-26T11:03:40.347Z,52.86
2019-04-26T11:04:41.469Z,53.25
2019-04-26T11:05:40.068Z,53.44
2019-04-26T11:06:40.074Z,53.92
2019-04-26T11:07:40.084Z,53.34
2019-04-26T11:08:40.081Z,53.34
2019-04-26T11:09:40.079Z,53.63
2019-04-26T11:10:48.613Z,53.53
2019-04-26T11:11:40.080Z,54.57
2019-04-26T11:12:43.414Z,53.41
2019-04-26T11:13:40.089Z,53.63
2019-04-26T11:14:40.088Z,53.83
2019-04-26T11:15:40.090Z,53.25
2019-04-26T11:16:41.171Z,53.70
2019-04-26T11:17:41.660Z,53.51
2019-04-26T11:18:40.123Z,53.99
2019-04-26T11:19:40.098Z,53.51
2019-04-26T11:20:41.428Z,53.61
2019-04-26T11:21:40.102Z,53.51
2019-04-26T11:22:40.107Z,53.51
2019-04-26T11:23:41.021Z,53.31
2019-04-26T11:24:40.124Z,52.83
2019-04-26T11:25:40.189Z,53.44
2019-04-26T11:26:41.601Z,52.57
2019-04-26T11:27:43.707Z,52.09
2019-04-26T11:28:41.988Z,51.97
2019-04-26T11:29:52.940Z,52.52
2019-04-26T11:30:40.155Z,52.81
2019-04-26T11:31:40.156Z,53.58
2019-04-26T11:32:40.128Z,53.39
2019-04-26T11:33:45.128Z,53.67
2019-04-26T11:34:42.819Z,54.16
2019-04-26T11:35:40.228Z,54.54
2019-04-26T11:36:41.780Z,54.25
2019-04-26T11:37:40.147Z,54.25
2019-04-26T11:38:40.192Z,53.96
2019-04-26T11:39:40.815Z,54.64
2019-04-26T11:40:40.174Z,54.93
2019-04-26T11:41:40.146Z,54.44
2019-04-26T11:42:41.967Z,54.44
2019-04-26T11:43:40.151Z,54.44
2019-04-26T11:44:40.153Z,54.54
2019-04-26T11:45:40.153Z,54.16
2019-04-26T11:46:44.833Z,54.54
2019-04-26T11:47:54.377Z,54.54
2019-04-26T11:48:41.590Z,54.93
2019-04-26T11:49:41.487Z,54.64
2019-04-26T11:50:41.247Z,54.35
2019-04-26T11:51:40.171Z,54.54
2019-04-26T11:52:40.194Z,55.12
2019-04-26T11:53:44.667Z,55.02
2019-04-26T11:54:40.171Z,55.41
2019-04-26T11:55:40.216Z,54.93
2019-04-26T11:56:40.202Z,55.02
2019-04-26T11:57:43.484Z,55.12
2019-04-26T11:58:40.178Z,55.89
2019-04-26T11:59:40.192Z,55.60
2019-04-26T12:00:40.208Z,55.57
2019-04-26T12:01:40.703Z,56.15
2019-04-26T12:02:40.221Z,56.44
2019-04-26T12:03:40.204Z,56.63
2019-04-26T12:04:40.191Z,57.12
2019-04-26T12:05:40.290Z,56.63
2019-04-26T12:06:40.217Z,57.60
2019-04-26T12:07:41.101Z,57.50
2019-04-26T12:08:40.196Z,57.40
2019-04-26T12:09:40.206Z,57.47
2019-04-26T12:10:43.905Z,57.69
2019-04-26T12:11:49.425Z,58.17
2019-04-26T12:12:43.115Z,57.86
2019-04-26T12:13:40.201Z,58.15
2019-04-26T12:14:40.203Z,58.63
2019-04-26T12:15:43.835Z,58.05
2019-04-26T12:16:48.153Z,58.05
2019-04-26T12:17:40.209Z,57.89
2019-04-26T12:18:44.235Z,57.79
2019-04-26T12:19:40.211Z,57.50
2019-04-26T12:20:40.215Z,56.73
2019-04-26T12:21:40.212Z,55.96
2019-04-26T12:22:43.376Z,55.57
2019-04-26T12:23:40.217Z,55.87
2019-04-26T12:24:40.220Z,55.67
2019-04-26T12:25:43.238Z,55.77
2019-04-26T12:26:43.682Z,56.63
2019-04-26T12:27:40.274Z,56.73
2019-04-26T12:28:41.343Z,56.35
2019-04-26T12:29:40.235Z,56.35
2019-04-26T12:30:40.232Z,56.73
2019-04-26T12:31:40.233Z,56.92
2019-04-26T12:32:40.234Z,57.02
2019-04-26T12:33:43.583Z,57.02
2019-04-26T12:34:40.233Z,56.82
2019-04-26T12:35:40.279Z,56.54
2019-04-26T12:36:40.527Z,56.82
2019-04-26T12:37:40.243Z,56.82
2019-04-26T12:38:40.243Z,56.73
2019-04-26T12:39:40.263Z,56.73
2019-04-26T12:40:42.299Z,55.96
2019-04-26T12:41:40.939Z,56.05
2019-04-26T12:42:43.410Z,56.05
2019-04-26T12:43:40.275Z,56.44
2019-04-26T12:44:41.235Z,56.44
2019-04-26T12:45:40.292Z,56.32
2019-04-26T12:46:40.253Z,56.73
2019-04-26T12:47:40.397Z,56.25
2019-04-26T12:48:40.414Z,56.05
2019-04-26T12:49:40.259Z,55.19
2019-04-26T12:50:40.260Z,55.67
2019-04-26T12:51:42.860Z,55.41
2019-04-26T12:52:40.268Z,55.31